Anatife — FGE8389 — position and weather

sailwx.info

Track history (hours):
 
Tides and Currents Weather Stations Pressure Air Temp Water Temp Dewpoint Dewpoint Depression Visibility Wind Speed Wind Dir Waves Ship Positions

Anatife

Last reported at 2015-Jul-30 16:15 UTC. Time now 2015-Aug-02 04:14 UTC.
Position N 47°13' W 002°23'.

Length 41 m; draft 2 m.

Type: Tanker. MMSI: 227681520.

Date/timePositionNaut miles runAvg speedWind from/ knotsBaromVisibWave heightAir tempDewpointWater temp
2015-Jul-30 16:15N 47°13' W 002°23'810.1
2015-Jul-30 15:27N 47°14' W 002°35'910.3
2015-Jul-30 14:33N 47°16' W 002°48'1010.3
2015-Jul-30 13:33N 47°20' W 003°03'4 0.4
2015-Jul-30 03:34N 47°21' W 003°08'3 3.1
2015-Jul-30 02:33N 47°20' W 003°03'6 6.0
2015-Jul-30 01:34N 47°18' W 002°55'9 8.7
2015-Jul-30 00:33N 47°15' W 002°43'9 8.6
2015-Jul-29 23:32N 47°14' W 002°30'8 8.3
2015-Jul-29 22:31N 47°12' W 002°18'11 0.7
2015-Jul-29 07:24N 47°18' W 002°05'0 0.0
2015-Jul-29 06:31N 47°18' W 002°05'0 0.0
2015-Jul-29 05:33N 47°18' W 002°05'0 0.0
2015-Jul-29 04:33N 47°18' W 002°05'  
2015-Jul-23 16:33N 47°18' W 002°05'4 4.3
2015-Jul-23 15:32N 47°17' W 002°11'27 8.7
2015-Jul-23 12:23N 46°51' W 002°25'8 9.4
2015-Jul-23 11:32N 46°44' W 002°21'0 0.0
2015-Jul-23 09:25N 46°44' W 002°21'36 1.5
2015-Jul-22 08:31N 47°18' W 002°05'0 0.0
2015-Jul-22 07:32N 47°18' W 002°05'0 0.0
2015-Jul-22 06:33N 47°18' W 002°05'0 0.0
2015-Jul-22 05:27N 47°18' W 002°05'0 0.0
2015-Jul-22 04:31N 47°18' W 002°05'0 0.0
2015-Jul-22 03:34N 47°18' W 002°05'0 0.0
2015-Jul-22 02:26N 47°18' W 002°05'0 0.0
2015-Jul-22 01:32N 47°18' W 002°05'0 0.0
2015-Jul-22 00:33N 47°18' W 002°05'0 0.0
2015-Jul-21 23:33N 47°18' W 002°05'0 0.0
2015-Jul-21 22:34N 47°18' W 002°05'3 3.4
2015-Jul-21 21:33N 47°17' W 002°10'9 8.6
2015-Jul-21 20:33N 47°12' W 002°20'1010.0
2015-Jul-21 19:34N 47°14' W 002°34'1010.2
2015-Jul-21 18:33N 47°17' W 002°49'1010.3
2015-Jul-21 17:33N 47°20' W 003°03'4 0.4
2015-Jul-21 07:11N 47°21' W 003°09'0 0.8
2015-Jul-21 06:33N 47°21' W 003°08'7 6.7
2015-Jul-21 05:33N 47°19' W 002°59'8 8.4
2015-Jul-21 04:33N 47°16' W 002°47'8 8.1
2015-Jul-21 03:33N 47°14' W 002°36'8 8.0
2015-Jul-21 02:34N 47°13' W 002°24'8 7.9
2015-Jul-21 01:33N 47°15' W 002°13'6 6.3
2015-Jul-21 00:34N 47°18' W 002°05'0 0.0
2015-Jul-20 23:33N 47°18' W 002°05'0 0.0
2015-Jul-20 22:32N 47°18' W 002°05'0 0.0
2015-Jul-20 21:33N 47°18' W 002°05'0 0.0
2015-Jul-20 20:34N 47°18' W 002°05'0 0.0
2015-Jul-20 19:34N 47°18' W 002°05'0 0.0
2015-Jul-20 18:34N 47°18' W 002°05'0 0.0
2015-Jul-20 17:33N 47°18' W 002°05'0 0.0
2015-Jul-20 16:33N 47°18' W 002°05'  
Track history (hours):
 
Tides and Currents Weather Stations Pressure Air Temp Water Temp Dewpoint Dewpoint Depression Visibility Wind Speed Wind Dir Waves Ship Positions

Anatife

Last reported at 2015-Jul-30 16:15 UTC. Time now 2015-Aug-02 04:14 UTC.
Position N 47°13' W 002°23'.

Length 41 m; draft 2 m.

Type: Tanker. MMSI: 227681520.

Date/timePositionNaut miles runAvg speedWind from/ knotsBaromVisibWave heightAir tempDewpointWater temp
2015-Jul-30 16:15N 47°13' W 002°23'810.1
2015-Jul-30 15:27N 47°14' W 002°35'910.3
2015-Jul-30 14:33N 47°16' W 002°48'1010.3
2015-Jul-30 13:33N 47°20' W 003°03'4 0.4
2015-Jul-30 03:34N 47°21' W 003°08'3 3.1
2015-Jul-30 02:33N 47°20' W 003°03'6 6.0
2015-Jul-30 01:34N 47°18' W 002°55'9 8.7
2015-Jul-30 00:33N 47°15' W 002°43'9 8.6
2015-Jul-29 23:32N 47°14' W 002°30'8 8.3
2015-Jul-29 22:31N 47°12' W 002°18'11 0.7
2015-Jul-29 07:24N 47°18' W 002°05'0 0.0
2015-Jul-29 06:31N 47°18' W 002°05'0 0.0
2015-Jul-29 05:33N 47°18' W 002°05'0 0.0
2015-Jul-29 04:33N 47°18' W 002°05'  
2015-Jul-23 16:33N 47°18' W 002°05'4 4.3
2015-Jul-23 15:32N 47°17' W 002°11'27 8.7
2015-Jul-23 12:23N 46°51' W 002°25'8 9.4
2015-Jul-23 11:32N 46°44' W 002°21'0 0.0
2015-Jul-23 09:25N 46°44' W 002°21'36 1.5
2015-Jul-22 08:31N 47°18' W 002°05'0 0.0
2015-Jul-22 07:32N 47°18' W 002°05'0 0.0
2015-Jul-22 06:33N 47°18' W 002°05'0 0.0
2015-Jul-22 05:27N 47°18' W 002°05'0 0.0
2015-Jul-22 04:31N 47°18' W 002°05'0 0.0
2015-Jul-22 03:34N 47°18' W 002°05'0 0.0
2015-Jul-22 02:26N 47°18' W 002°05'0 0.0
2015-Jul-22 01:32N 47°18' W 002°05'0 0.0
2015-Jul-22 00:33N 47°18' W 002°05'0 0.0
2015-Jul-21 23:33N 47°18' W 002°05'0 0.0
2015-Jul-21 22:34N 47°18' W 002°05'3 3.4
2015-Jul-21 21:33N 47°17' W 002°10'9 8.6
2015-Jul-21 20:33N 47°12' W 002°20'1010.0
2015-Jul-21 19:34N 47°14' W 002°34'1010.2
2015-Jul-21 18:33N 47°17' W 002°49'1010.3
2015-Jul-21 17:33N 47°20' W 003°03'4 0.4
2015-Jul-21 07:11N 47°21' W 003°09'0 0.8
2015-Jul-21 06:33N 47°21' W 003°08'7 6.7
2015-Jul-21 05:33N 47°19' W 002°59'8 8.4
2015-Jul-21 04:33N 47°16' W 002°47'8 8.1
2015-Jul-21 03:33N 47°14' W 002°36'8 8.0
2015-Jul-21 02:34N 47°13' W 002°24'8 7.9
2015-Jul-21 01:33N 47°15' W 002°13'6 6.3
2015-Jul-21 00:34N 47°18' W 002°05'0 0.0
2015-Jul-20 23:33N 47°18' W 002°05'0 0.0
2015-Jul-20 22:32N 47°18' W 002°05'0 0.0
2015-Jul-20 21:33N 47°18' W 002°05'0 0.0
2015-Jul-20 20:34N 47°18' W 002°05'0 0.0
2015-Jul-20 19:34N 47°18' W 002°05'0 0.0
2015-Jul-20 18:34N 47°18' W 002°05'0 0.0
2015-Jul-20 17:33N 47°18' W 002°05'0 0.0
2015-Jul-20 16:33N 47°18' W 002°05'  

Dump ship's entire track history